Pagrindinis puslapis
METAR-TAF:

METAR-TAF

Oro uostai :

Stokholmas, Švedija

platuma: 59-21N, ilguma: 017-57E, Aukštis: 14 m

Dabartinis oras

Ataskaita buvo paskelbta 21 minutes, ne 14:20 UTC
Vėjas 12 kt iš Šiaurės, svyruoja nuo Šiaurės Vakarų ir Šiaurės Rytų
Temperatūra 3°C
Drėgmė 41%
Slėgis 1016 hPa
Matomumas 10 km arba daugiau
Mažai debesys ne aukštis 4700 ft

METAR: ESSB 201420Z 35012KT 310V040 9999 FEW047 03/M09 Q1016

Laikas: 16:41 (14:41 UTC)

Prognozė

Ataskaita buvo paskelbta 3 valandos ir 11 minutes, ne 11:30 UTC
Prognozė galioja nuo 20 metu 12 UTC su 20 metu 16 UTC
Vėjas 11 kt iš Šiaurės
Matomumas 10 km arba daugiau
Su prošvaistėmis ne aukštis 3500 ft

TAF: ESSB 201130Z 2012/2016 35011KT 9999 BKN035

Orai ataskaitas ir orų prognozės (METAR, TAF).

turimą stotys yra geltonos ir raudonos taškus žemėlapyje.

Perkelti pele per norėdami pamatyti stoties vardą.

Tada spustelėkite, norėdami matyti oro stebėjimo ir prognozės.

Norėdami pakeisti žemėlapį: spustelėkite ant žalios mygtukų su juodo kryžiaus žemyn,; žalią mygtuką su brūkšneliu, jei norite nutolinti; arba žalių rodyklių gretimoms žemėlapius.


METAR-TAF: